createdAt,value
2023-12-28T00:00:53.627Z,100555.36
2023-12-28T00:03:45.992Z,100552.73
2023-12-28T00:06:18.351Z,100543.18
2023-12-28T00:09:00.235Z,100558.23
2023-12-28T00:11:36.800Z,100539.22
2023-12-28T00:14:09.122Z,100538.76
2023-12-28T00:16:41.320Z,100547.95
2023-12-28T00:19:13.846Z,100553.20
2023-12-28T00:21:46.234Z,100552.25
2023-12-28T00:24:22.434Z,100549.84
2023-12-28T00:26:54.846Z,100542.33
2023-12-28T00:29:27.150Z,100545.98
2023-12-28T00:32:00.869Z,100548.80
2023-12-28T00:34:33.564Z,100546.25
2023-12-28T00:37:05.778Z,100546.90
2023-12-28T00:39:39.449Z,100543.27
2023-12-28T00:42:12.168Z,100541.06
2023-12-28T00:44:45.103Z,100535.77
2023-12-28T00:47:17.883Z,100536.80
2023-12-28T00:49:49.926Z,100528.42
2023-12-28T00:52:22.290Z,100522.61
2023-12-28T00:54:54.700Z,100516.23
2023-12-28T00:57:26.915Z,100508.18
2023-12-28T00:59:59.958Z,100498.31
2023-12-28T01:02:32.898Z,100498.88
2023-12-28T01:05:06.138Z,100480.53
2023-12-28T01:07:38.194Z,100494.45
2023-12-28T01:10:12.178Z,100492.23
2023-12-28T01:12:44.955Z,100486.36
2023-12-28T01:15:19.413Z,100485.98
2023-12-28T01:17:51.741Z,100492.38
2023-12-28T01:20:24.032Z,100489.89
2023-12-28T01:22:56.148Z,100488.64
2023-12-28T01:25:28.373Z,100492.96
2023-12-28T01:28:00.956Z,100497.86
2023-12-28T01:30:35.599Z,100491.23
2023-12-28T01:33:09.343Z,100481.60
2023-12-28T01:35:43.588Z,100477.54
2023-12-28T01:38:16.885Z,100468.42
2023-12-28T01:40:49.589Z,100474.62
2023-12-28T01:43:22.063Z,100477.38
2023-12-28T01:45:54.174Z,100474.09
2023-12-28T01:48:26.794Z,100466.96
2023-12-28T01:51:00.706Z,100465.33
2023-12-28T01:53:33.115Z,100455.48
2023-12-28T01:56:06.283Z,100440.37
2023-12-28T01:58:41.470Z,100430.64
2023-12-28T02:01:14.080Z,100424.33
2023-12-28T02:03:46.709Z,100415.27
2023-12-28T02:06:20.516Z,100409.26
2023-12-28T02:08:52.989Z,100397.30
2023-12-28T02:11:25.156Z,100389.56
2023-12-28T02:13:57.869Z,100392.02
2023-12-28T02:16:38.865Z,100392.77
2023-12-28T02:19:21.188Z,100391.98
2023-12-28T02:21:54.499Z,100384.33
2023-12-28T02:24:26.562Z,100379.54
2023-12-28T02:26:59.205Z,100370.05
2023-12-28T02:29:31.330Z,100353.05
2023-12-28T02:32:10.716Z,100342.29
2023-12-28T02:34:46.454Z,100326.91
2023-12-28T02:37:20.212Z,100330.05
2023-12-28T02:39:53.762Z,100338.79
2023-12-28T02:42:26.985Z,100334.02
2023-12-28T02:44:59.086Z,100325.08
2023-12-28T02:47:31.246Z,100306.89
2023-12-28T02:50:03.348Z,100298.90
2023-12-28T02:52:36.614Z,100285.60
2023-12-28T02:55:10.367Z,100279.88
2023-12-28T02:57:43.004Z,100276.11
2023-12-28T03:00:16.520Z,100265.95
2023-12-28T03:02:48.823Z,100262.18
2023-12-28T03:05:21.112Z,100257.52
2023-12-28T03:07:53.246Z,100245.59
2023-12-28T03:10:25.402Z,100249.82
2023-12-28T03:12:59.259Z,100244.43
2023-12-28T03:15:32.161Z,100251.68
2023-12-28T03:18:05.464Z,100239.02
2023-12-28T03:20:38.360Z,100248.86
2023-12-28T03:23:13.452Z,100238.70
2023-12-28T03:25:45.535Z,100247.12
2023-12-28T03:28:18.084Z,100244.48
2023-12-28T03:30:52.890Z,100229.88
2023-12-28T03:33:25.093Z,100237.20
2023-12-28T03:35:58.152Z,100238.39
2023-12-28T03:38:31.450Z,100238.02
2023-12-28T03:41:03.573Z,100235.54
2023-12-28T03:43:36.335Z,100243.19
2023-12-28T03:46:08.493Z,100226.02
2023-12-28T03:48:41.565Z,100222.23
2023-12-28T03:51:18.297Z,100223.56
2023-12-28T03:53:50.607Z,100215.53
2023-12-28T03:56:25.299Z,100209.66
2023-12-28T03:58:59.314Z,100207.27
2023-12-28T04:01:31.569Z,100212.89
2023-12-28T04:04:04.443Z,100217.31
2023-12-28T04:06:36.888Z,100207.49
2023-12-28T04:09:09.035Z,100203.60
2023-12-28T04:11:41.088Z,100217.45
2023-12-28T04:14:13.127Z,100210.76
2023-12-28T04:16:45.333Z,100205.17
2023-12-28T04:19:20.672Z,100213.07
2023-12-28T04:21:53.450Z,100213.70
2023-12-28T04:24:25.480Z,100214.71
2023-12-28T04:26:57.709Z,100223.61
2023-12-28T04:29:30.312Z,100228.46
2023-12-28T04:32:02.393Z,100233.86
2023-12-28T04:34:34.954Z,100235.91
2023-12-28T04:37:07.172Z,100232.21
2023-12-28T04:39:39.343Z,100227.89
2023-12-28T04:42:11.415Z,100236.37
2023-12-28T04:44:43.847Z,100230.39
2023-12-28T04:47:16.121Z,100231.88
2023-12-28T04:49:48.748Z,100193.84
2023-12-28T04:52:21.006Z,100220.20
2023-12-28T04:54:54.371Z,100217.96
2023-12-28T04:57:27.776Z,100215.41
2023-12-28T04:59:59.963Z,100214.05
2023-12-28T05:02:32.855Z,100215.95
2023-12-28T05:05:06.782Z,100211.03
2023-12-28T05:07:38.829Z,100208.41
2023-12-28T05:10:12.059Z,100199.64
2023-12-28T05:12:44.924Z,100178.54
2023-12-28T05:15:19.419Z,100186.34
2023-12-28T05:17:52.118Z,100192.05
2023-12-28T05:20:24.148Z,100195.39
2023-12-28T05:22:56.440Z,100189.98
2023-12-28T05:25:28.804Z,100197.12
2023-12-28T05:28:01.273Z,100203.47
2023-12-28T05:30:34.116Z,100200.77
2023-12-28T05:33:07.379Z,100197.39
2023-12-28T05:35:39.766Z,100178.40
2023-12-28T05:38:11.828Z,100185.52
2023-12-28T05:40:45.177Z,100179.94
2023-12-28T05:43:17.449Z,100180.41
2023-12-28T05:45:49.568Z,100190.90
2023-12-28T05:48:21.712Z,100192.77
2023-12-28T05:50:53.796Z,100192.80
2023-12-28T05:53:25.968Z,100196.30
2023-12-28T05:55:58.024Z,100190.09
2023-12-28T05:58:30.304Z,100194.34
2023-12-28T06:01:02.697Z,100194.76
2023-12-28T06:03:36.553Z,100198.47
2023-12-28T06:06:09.049Z,100210.55
2023-12-28T06:08:41.055Z,100215.96
2023-12-28T06:11:13.107Z,100217.16
2023-12-28T06:13:45.281Z,100218.77
2023-12-28T06:16:17.560Z,100223.98
2023-12-28T06:18:49.771Z,100236.31
2023-12-28T06:21:24.405Z,100244.63
2023-12-28T06:23:57.135Z,100249.65
2023-12-28T06:26:29.343Z,100260.67
2023-12-28T06:29:01.806Z,100281.42
2023-12-28T06:31:37.288Z,100277.48
2023-12-28T06:34:10.287Z,100279.59
2023-12-28T06:36:44.586Z,100287.14
2023-12-28T06:39:17.170Z,100278.91
2023-12-28T06:41:51.915Z,100278.17
2023-12-28T06:44:22.403Z,100272.46
2023-12-28T06:46:54.467Z,100268.77
2023-12-28T06:49:26.791Z,100265.92
2023-12-28T06:51:59.874Z,100272.14
2023-12-28T06:54:32.138Z,100291.55
2023-12-28T06:57:04.294Z,100276.20
2023-12-28T06:59:36.481Z,100255.77
2023-12-28T07:02:09.282Z,100264.18
2023-12-28T07:04:41.408Z,100275.53
2023-12-28T07:07:13.637Z,100287.20
2023-12-28T07:09:45.699Z,100286.17
2023-12-28T07:12:17.763Z,100290.77
2023-12-28T07:14:49.832Z,100297.88
2023-12-28T07:17:22.138Z,100298.15
2023-12-28T07:19:55.312Z,100300.73
2023-12-28T07:22:27.762Z,100303.23
2023-12-28T07:25:00.263Z,100306.55
2023-12-28T07:27:32.529Z,100313.17
2023-12-28T07:30:05.096Z,100324.45
2023-12-28T07:32:37.447Z,100323.83
2023-12-28T07:35:10.604Z,100326.30
2023-12-28T07:37:42.782Z,100330.95
2023-12-28T07:40:16.822Z,100330.44
2023-12-28T07:42:48.901Z,100334.63
2023-12-28T07:45:24.519Z,100334.45
2023-12-28T07:47:57.135Z,100335.14
2023-12-28T07:50:29.565Z,100342.06
2023-12-28T07:53:01.722Z,100346.92
2023-12-28T07:55:33.686Z,100347.73
2023-12-28T07:58:06.302Z,100351.98
2023-12-28T08:00:38.581Z,100350.27
2023-12-28T08:03:10.827Z,100343.20
2023-12-28T08:05:43.289Z,100344.88
2023-12-28T08:08:15.674Z,100338.34
2023-12-28T08:10:48.861Z,100346.54
2023-12-28T08:13:22.325Z,100346.55
2023-12-28T08:15:54.633Z,100349.63
2023-12-28T08:18:26.867Z,100345.70
2023-12-28T08:21:00.205Z,100350.76
2023-12-28T08:23:32.259Z,100353.81
2023-12-28T08:26:05.961Z,100350.02
2023-12-28T08:28:38.225Z,100346.09
2023-12-28T08:31:10.614Z,100342.73
2023-12-28T08:33:43.388Z,100343.92
2023-12-28T08:36:17.503Z,100345.36
2023-12-28T08:38:49.817Z,100340.04
2023-12-28T08:41:26.292Z,100360.02
2023-12-28T08:43:58.844Z,100349.60
2023-12-28T08:46:31.001Z,100354.77
2023-12-28T08:49:03.223Z,100363.63
2023-12-28T08:51:35.521Z,100359.58
2023-12-28T08:54:07.752Z,100351.54
2023-12-28T08:56:40.339Z,100328.34
2023-12-28T08:59:12.557Z,100358.67
2023-12-28T09:01:44.814Z,100367.67
2023-12-28T09:04:17.229Z,100362.99
2023-12-28T09:06:49.571Z,100347.70
2023-12-28T09:09:22.042Z,100358.88
2023-12-28T09:11:54.161Z,100366.44
2023-12-28T09:14:26.358Z,100366.71
2023-12-28T09:16:58.505Z,100368.95
2023-12-28T09:19:30.611Z,100371.14
2023-12-28T09:22:02.892Z,100370.55
2023-12-28T09:24:35.137Z,100371.95
2023-12-28T09:27:07.718Z,100369.44
2023-12-28T09:29:39.913Z,100375.41
2023-12-28T09:32:12.209Z,100377.19
2023-12-28T09:34:45.373Z,100378.23
2023-12-28T09:37:17.565Z,100375.63
2023-12-28T09:39:50.099Z,100373.53
2023-12-28T09:42:31.533Z,100370.90
2023-12-28T09:45:04.844Z,100371.39
2023-12-28T09:47:37.342Z,100373.17
2023-12-28T09:50:10.657Z,100370.21
2023-12-28T09:52:44.106Z,100372.23
2023-12-28T09:55:16.497Z,100370.23
2023-12-28T09:57:49.390Z,100359.15
2023-12-28T10:00:22.148Z,100368.84
2023-12-28T10:02:54.279Z,100369.02
2023-12-28T10:05:26.688Z,100374.81
2023-12-28T10:07:59.430Z,100376.54
2023-12-28T10:10:32.560Z,100374.91
2023-12-28T10:13:05.249Z,100377.02
2023-12-28T10:15:38.936Z,100379.20
2023-12-28T10:18:11.457Z,100387.28
2023-12-28T10:20:44.102Z,100372.73
2023-12-28T10:23:16.335Z,100384.18
2023-12-28T10:25:49.347Z,100382.72
2023-12-28T10:28:21.583Z,100380.55
2023-12-28T10:30:58.431Z,100377.53
2023-12-28T10:33:36.072Z,100363.88
2023-12-28T10:36:10.826Z,100370.44
2023-12-28T10:38:45.973Z,100366.02
2023-12-28T10:41:19.317Z,100359.04
2023-12-28T10:43:59.752Z,100359.23
2023-12-28T10:46:34.659Z,100361.97
2023-12-28T10:49:12.121Z,100355.95
2023-12-28T10:51:47.316Z,100358.56
2023-12-28T10:54:29.630Z,100355.63
2023-12-28T10:57:08.818Z,100354.10
2023-12-28T10:59:54.072Z,100355.29
2023-12-28T11:02:32.664Z,100354.81
2023-12-28T11:05:07.610Z,100352.57
2023-12-28T11:07:41.834Z,100352.86
2023-12-28T11:10:15.929Z,100353.63
2023-12-28T11:12:49.265Z,100355.75
2023-12-28T11:15:22.420Z,100358.73
2023-12-28T11:17:54.764Z,100358.11
2023-12-28T11:20:29.445Z,100353.38
2023-12-28T11:23:01.046Z,100348.31
2023-12-28T11:25:35.829Z,100350.60
2023-12-28T11:28:12.548Z,100339.65
2023-12-28T11:30:45.269Z,100340.02
2023-12-28T11:33:18.141Z,100336.91
2023-12-28T11:35:51.003Z,100340.20
2023-12-28T11:38:23.825Z,100341.66
2023-12-28T11:40:58.505Z,100343.02
2023-12-28T11:43:34.389Z,100342.39
2023-12-28T11:46:10.140Z,100345.32
2023-12-28T11:48:42.250Z,100343.23
2023-12-28T11:51:14.387Z,100346.69
2023-12-28T11:53:48.830Z,100345.16
2023-12-28T11:56:21.114Z,100340.01
2023-12-28T11:58:53.389Z,100342.61
2023-12-28T12:01:25.619Z,100326.14
2023-12-28T12:03:58.365Z,100334.11
2023-12-28T12:06:31.264Z,100332.56
2023-12-28T12:09:03.525Z,100333.62
2023-12-28T12:11:35.773Z,100338.64
2023-12-28T12:14:12.014Z,100345.46
2023-12-28T12:16:44.179Z,100351.14
2023-12-28T12:19:17.210Z,100352.34
2023-12-28T12:21:51.360Z,100350.50
2023-12-28T12:24:24.213Z,100349.20
2023-12-28T12:26:56.684Z,100347.16
2023-12-28T12:29:29.589Z,100344.47
2023-12-28T12:32:04.355Z,100349.54
2023-12-28T12:34:36.992Z,100346.85
2023-12-28T12:37:09.303Z,100348.91
2023-12-28T12:39:41.590Z,100350.94
2023-12-28T12:42:16.653Z,100349.55
2023-12-28T12:44:48.894Z,100349.50
2023-12-28T12:47:21.195Z,100349.20
2023-12-28T12:49:55.259Z,100331.66
2023-12-28T12:52:27.548Z,100342.58
2023-12-28T12:55:00.542Z,100338.16
2023-12-28T12:57:33.812Z,100330.52
2023-12-28T13:00:09.411Z,100337.77
2023-12-28T13:02:42.090Z,100340.59
2023-12-28T13:05:15.448Z,100336.64
2023-12-28T13:07:47.579Z,100346.83
2023-12-28T13:10:19.834Z,100343.77
2023-12-28T13:12:52.263Z,100343.39
2023-12-28T13:15:24.522Z,100341.24
2023-12-28T13:17:56.889Z,100336.67
2023-12-28T13:20:29.193Z,100330.05
2023-12-28T13:23:03.070Z,100311.76
2023-12-28T13:25:36.805Z,100326.02
2023-12-28T13:28:09.832Z,100330.15
2023-12-28T13:30:42.139Z,100320.66
2023-12-28T13:33:14.601Z,100315.70
2023-12-28T13:35:46.731Z,100310.96
2023-12-28T13:38:18.981Z,100311.61
2023-12-28T13:40:51.142Z,100315.12
2023-12-28T13:43:23.183Z,100314.69
2023-12-28T13:45:55.244Z,100316.05
2023-12-28T13:48:27.625Z,100315.27
2023-12-28T13:50:59.861Z,100314.86
2023-12-28T13:53:32.768Z,100307.55
2023-12-28T13:56:05.370Z,100292.80
2023-12-28T13:58:37.789Z,100289.06
2023-12-28T14:01:10.065Z,100304.91
2023-12-28T14:03:42.361Z,100301.70
2023-12-28T14:06:14.853Z,100288.48
2023-12-28T14:08:46.882Z,100297.57
2023-12-28T14:11:19.690Z,100306.95
2023-12-28T14:13:52.042Z,100310.27
2023-12-28T14:16:24.385Z,100307.06
2023-12-28T14:18:56.719Z,100303.84
2023-12-28T14:21:29.909Z,100308.23
2023-12-28T14:24:04.158Z,100311.86
2023-12-28T14:26:42.421Z,100315.67
2023-12-28T14:29:16.707Z,100320.08
2023-12-28T14:31:50.175Z,100325.71
2023-12-28T14:34:23.538Z,100330.02
2023-12-28T14:36:56.755Z,100331.79
2023-12-28T14:39:52.930Z,100332.10
2023-12-28T14:42:25.330Z,100337.33
2023-12-28T14:44:57.724Z,100336.73
2023-12-28T14:47:30.159Z,100338.27
2023-12-28T14:50:02.908Z,100335.80
2023-12-28T14:52:36.608Z,100334.02
2023-12-28T14:55:10.747Z,100337.17
2023-12-28T14:57:43.077Z,100334.26
2023-12-28T15:00:16.972Z,100334.17
2023-12-28T15:02:49.400Z,100324.58
2023-12-28T15:05:23.796Z,100331.98
2023-12-28T15:07:56.221Z,100330.58
2023-12-28T15:10:31.082Z,100328.92
2023-12-28T15:13:06.575Z,100330.13
2023-12-28T15:15:40.075Z,100326.94
2023-12-28T15:18:14.430Z,100327.96
2023-12-28T15:20:48.130Z,100325.61
2023-12-28T15:23:21.936Z,100330.80
2023-12-28T15:25:54.034Z,100326.08
2023-12-28T15:28:26.288Z,100322.73
2023-12-28T15:30:58.484Z,100322.36
2023-12-28T15:33:30.833Z,100327.98
2023-12-28T15:36:03.063Z,100327.63
2023-12-28T15:38:35.281Z,100334.46
2023-12-28T15:41:07.667Z,100335.86
2023-12-28T15:43:41.421Z,100331.50
2023-12-28T15:46:14.505Z,100337.71
2023-12-28T15:48:47.092Z,100335.38
2023-12-28T15:51:19.836Z,100332.64
2023-12-28T15:53:52.813Z,100335.59
2023-12-28T15:56:26.714Z,100338.52
2023-12-28T15:58:58.887Z,100347.29
2023-12-28T16:01:31.506Z,100328.72
2023-12-28T16:04:03.740Z,100340.83
2023-12-28T16:06:38.727Z,100339.11
2023-12-28T16:09:12.275Z,100341.46
2023-12-28T16:11:45.634Z,100342.73
2023-12-28T16:14:20.336Z,100339.34
2023-12-28T16:16:53.524Z,100339.43
2023-12-28T16:19:27.229Z,100343.18
2023-12-28T16:22:00.534Z,100348.98
2023-12-28T16:24:32.661Z,100345.69
2023-12-28T16:27:05.892Z,100340.76
2023-12-28T16:29:37.937Z,100318.88
2023-12-28T16:32:10.242Z,100345.41
2023-12-28T16:34:42.571Z,100342.02
2023-12-28T16:37:14.787Z,100347.33
2023-12-28T16:39:47.234Z,100348.38
2023-12-28T16:42:19.476Z,100344.97
2023-12-28T16:44:51.944Z,100339.76
2023-12-28T16:47:24.154Z,100342.87
2023-12-28T16:49:56.552Z,100338.48
2023-12-28T16:52:28.697Z,100317.98
2023-12-28T16:55:00.873Z,100326.54
2023-12-28T16:57:33.252Z,100331.55
2023-12-28T17:00:11.328Z,100331.39
2023-12-28T17:02:44.600Z,100327.64
2023-12-28T17:05:17.922Z,100327.86
2023-12-28T17:07:51.426Z,100328.34
2023-12-28T17:10:25.316Z,100331.36
2023-12-28T17:12:58.477Z,100311.45
2023-12-28T17:15:33.637Z,100326.48
2023-12-28T17:18:06.726Z,100332.92
2023-12-28T17:20:39.869Z,100334.60
2023-12-28T17:23:20.359Z,100339.55
2023-12-28T17:25:58.513Z,100333.07
2023-12-28T17:28:38.480Z,100330.65
2023-12-28T17:31:12.544Z,100330.20
2023-12-28T17:33:45.766Z,100329.86
2023-12-28T17:36:19.467Z,100335.86
2023-12-28T17:38:52.596Z,100330.72
2023-12-28T17:41:28.620Z,100328.15
2023-12-28T17:44:07.493Z,100329.04
2023-12-28T17:46:49.266Z,100335.42
2023-12-28T17:49:30.107Z,100335.02
2023-12-28T17:52:04.382Z,100332.73
2023-12-28T17:54:36.644Z,100338.45
2023-12-28T17:57:08.793Z,100336.36
2023-12-28T17:59:40.826Z,100328.00
2023-12-28T18:02:14.688Z,100329.16
2023-12-28T18:04:46.952Z,100333.60
2023-12-28T18:07:19.159Z,100327.35
2023-12-28T18:09:53.010Z,100324.52
2023-12-28T18:12:25.315Z,100323.36
2023-12-28T18:14:57.478Z,100325.73
2023-12-28T18:17:29.614Z,100328.90
2023-12-28T18:20:01.961Z,100334.05
2023-12-28T18:22:34.280Z,100328.13
2023-12-28T18:25:07.222Z,100333.62
2023-12-28T18:27:39.413Z,100334.83
2023-12-28T18:30:13.293Z,100331.67
2023-12-28T18:32:45.513Z,100333.89
2023-12-28T18:35:18.067Z,100340.27
2023-12-28T18:37:50.243Z,100335.43
2023-12-28T18:40:22.666Z,100332.02
2023-12-28T18:42:55.017Z,100337.41
2023-12-28T18:45:27.558Z,100336.50
2023-12-28T18:48:01.585Z,100331.89
2023-12-28T18:50:34.054Z,100336.30
2023-12-28T18:53:06.958Z,100337.48
2023-12-28T18:55:40.810Z,100336.63
2023-12-28T18:58:13.206Z,100336.00
2023-12-28T19:00:45.481Z,100336.10
2023-12-28T19:03:17.518Z,100334.04
2023-12-28T19:05:50.843Z,100330.77
2023-12-28T19:08:23.250Z,100325.55
2023-12-28T19:10:55.296Z,100322.21
2023-12-28T19:13:27.440Z,100319.67
2023-12-28T19:15:59.633Z,100321.98
2023-12-28T19:18:32.182Z,100325.29
2023-12-28T19:21:04.604Z,100322.27
2023-12-28T19:23:37.329Z,100315.90
2023-12-28T19:26:09.367Z,100317.40
2023-12-28T19:28:41.547Z,100316.54
2023-12-28T19:31:14.003Z,100299.64
2023-12-28T19:33:46.437Z,100316.51
2023-12-28T19:36:19.181Z,100312.08
2023-12-28T19:38:53.263Z,100311.72
2023-12-28T19:41:25.439Z,100308.64
2023-12-28T19:43:58.062Z,100306.98
2023-12-28T19:46:30.283Z,100305.29
2023-12-28T19:49:04.645Z,100304.50
2023-12-28T19:51:37.467Z,100305.52
2023-12-28T19:54:10.192Z,100310.39
2023-12-28T19:56:42.480Z,100319.68
2023-12-28T19:59:14.828Z,100311.06
2023-12-28T20:01:49.296Z,100311.59
2023-12-28T20:04:21.486Z,100307.14
2023-12-28T20:06:54.561Z,100314.83
2023-12-28T20:09:27.272Z,100307.30
2023-12-28T20:11:59.606Z,100314.68
2023-12-28T20:14:32.180Z,100311.84
2023-12-28T20:17:04.435Z,100310.16
2023-12-28T20:19:37.204Z,100312.95
2023-12-28T20:22:10.238Z,100307.36
2023-12-28T20:24:42.480Z,100306.66
2023-12-28T20:27:14.725Z,100304.25
2023-12-28T20:29:46.766Z,100309.71
2023-12-28T20:32:19.032Z,100312.41
2023-12-28T20:34:51.299Z,100314.19
2023-12-28T20:37:23.703Z,100311.83
2023-12-28T20:39:56.012Z,100317.41
2023-12-28T20:42:28.135Z,100312.23
2023-12-28T20:45:01.700Z,100308.16
2023-12-28T20:47:33.861Z,100306.73
2023-12-28T20:50:08.335Z,100309.26
2023-12-28T20:52:39.181Z,100312.22
2023-12-28T20:55:12.126Z,100315.92
2023-12-28T20:57:44.254Z,100317.64
2023-12-28T21:00:18.477Z,100310.13
2023-12-28T21:02:50.757Z,100317.76
2023-12-28T21:05:23.142Z,100311.71
2023-12-28T21:07:55.199Z,100314.64
2023-12-28T21:10:29.600Z,100311.23
2023-12-28T21:13:05.217Z,100302.38
2023-12-28T21:15:38.356Z,100281.02
2023-12-28T21:18:19.074Z,100294.21
2023-12-28T21:21:05.636Z,100289.63
2023-12-28T21:23:43.294Z,100279.88
2023-12-28T21:26:15.418Z,100288.39
2023-12-28T21:28:47.695Z,100289.87
2023-12-28T21:31:19.918Z,100288.51
2023-12-28T21:33:52.946Z,100287.27
2023-12-28T21:36:25.970Z,100290.20
2023-12-28T21:38:58.081Z,100288.77
2023-12-28T21:41:30.036Z,100289.52
2023-12-28T21:44:02.232Z,100290.23
2023-12-28T21:46:34.567Z,100286.66
2023-12-28T21:49:06.858Z,100286.39
2023-12-28T21:51:40.901Z,100287.30
2023-12-28T21:54:13.346Z,100290.21
2023-12-28T21:56:45.638Z,100288.92
2023-12-28T21:59:19.735Z,100283.96
2023-12-28T22:01:53.229Z,100279.52
2023-12-28T22:04:25.963Z,100277.55
2023-12-28T22:06:58.105Z,100280.95
2023-12-28T22:09:30.792Z,100278.47
2023-12-28T22:12:03.398Z,100274.51
2023-12-28T22:14:35.633Z,100272.83
2023-12-28T22:17:08.137Z,100269.36
2023-12-28T22:19:40.483Z,100255.86
2023-12-28T22:22:13.242Z,100275.75
2023-12-28T22:24:45.861Z,100280.96
2023-12-28T22:27:18.174Z,100277.08
2023-12-28T22:29:50.313Z,100273.83
2023-12-28T22:32:22.623Z,100273.89
2023-12-28T22:34:55.893Z,100274.45
2023-12-28T22:37:28.411Z,100275.38
2023-12-28T22:40:03.112Z,100274.46
2023-12-28T22:42:35.429Z,100275.70
2023-12-28T22:45:08.768Z,100274.48
2023-12-28T22:47:42.185Z,100277.66
2023-12-28T22:50:14.445Z,100273.15
2023-12-28T22:52:46.669Z,100271.03
2023-12-28T22:55:20.069Z,100264.86
2023-12-28T22:57:54.820Z,100262.13
2023-12-28T23:00:35.764Z,100264.02
2023-12-28T23:03:09.916Z,100266.69
2023-12-28T23:05:42.084Z,100266.60
2023-12-28T23:08:14.251Z,100259.48
2023-12-28T23:10:46.416Z,100257.97
2023-12-28T23:13:18.578Z,100257.19
2023-12-28T23:15:50.687Z,100252.41
2023-12-28T23:18:23.349Z,100243.95
2023-12-28T23:20:55.480Z,100245.14
2023-12-28T23:23:27.507Z,100240.71
2023-12-28T23:25:59.786Z,100237.73
2023-12-28T23:28:32.253Z,100234.17
2023-12-28T23:31:04.739Z,100234.41
2023-12-28T23:33:37.373Z,100232.70
2023-12-28T23:36:12.801Z,100232.85
2023-12-28T23:38:44.870Z,100217.23
2023-12-28T23:41:17.076Z,100213.40
2023-12-28T23:43:49.268Z,100224.95
2023-12-28T23:46:22.228Z,100220.92
2023-12-28T23:48:54.341Z,100216.73
2023-12-28T23:51:26.469Z,100214.01
2023-12-28T23:53:58.644Z,100208.87
2023-12-28T23:56:30.963Z,100209.04
2023-12-28T23:59:03.298Z,100202.78
